createdAt,value
2022-08-24T07:18:58.952Z,101808.05
2022-08-24T07:19:59.632Z,101803.02
2022-08-24T07:20:59.771Z,101803.36
2022-08-24T07:21:59.858Z,101803.41
2022-08-24T07:23:01.216Z,101802.95
2022-08-24T07:24:02.169Z,101802.81
2022-08-24T07:25:02.748Z,101802.85
2022-08-24T07:26:02.434Z,101802.70
2022-08-24T07:27:02.746Z,101802.56
2022-08-24T07:28:07.969Z,101802.41
2022-08-24T07:29:03.226Z,101801.95
2022-08-24T07:30:25.907Z,101801.72
2022-08-24T07:31:04.977Z,101801.90
2022-08-24T07:32:05.665Z,101802.05
2022-08-24T07:33:06.921Z,101802.23
2022-08-24T07:34:06.951Z,101802.38
2022-08-24T07:35:07.324Z,101802.63
2022-08-24T07:36:08.118Z,101802.70
2022-08-24T07:37:07.432Z,101802.77
2022-08-24T07:38:08.577Z,101802.91
2022-08-24T07:39:08.766Z,101802.95
2022-08-24T07:40:09.168Z,101803.20
2022-08-24T07:41:37.832Z,101803.52
2022-08-24T07:42:13.870Z,101803.25
2022-08-24T07:42:31.104Z,101808.06
2022-08-24T07:43:25.138Z,101800.94
2022-08-24T07:44:26.794Z,101800.80
2022-08-24T07:45:26.184Z,101801.38
2022-08-24T07:46:26.265Z,101801.39
2022-08-24T07:47:38.513Z,101801.06
2022-08-24T07:48:27.564Z,101800.64
2022-08-24T07:49:36.948Z,101800.10
2022-08-24T07:50:29.723Z,101799.78
2022-08-24T07:52:29.192Z,101799.66
2022-08-24T07:53:43.794Z,101799.30
2022-08-24T07:54:30.418Z,101799.63
2022-08-24T07:55:30.946Z,101799.43
2022-08-24T07:56:30.967Z,101798.88
2022-08-24T07:57:31.190Z,101799.23
2022-08-24T07:58:32.121Z,101799.69
2022-08-24T07:59:33.521Z,101799.80
2022-08-24T08:00:34.425Z,101799.75
2022-08-24T08:01:34.023Z,101800.18
2022-08-24T08:02:36.173Z,101800.39
2022-08-24T08:03:35.441Z,101800.69
2022-08-24T08:04:36.698Z,101800.63
2022-08-24T08:05:36.282Z,101801.28
2022-08-24T08:06:37.212Z,101801.73
2022-08-24T08:07:37.477Z,101802.08
2022-08-24T08:07:52.140Z,101804.65
2022-08-24T08:08:51.238Z,101809.91
2022-08-24T08:09:52.113Z,101809.38
2022-08-24T08:10:53.104Z,101809.37
2022-08-24T08:11:54.220Z,101808.78
2022-08-24T08:12:54.535Z,101809.23
2022-08-24T08:13:55.356Z,101808.50
2022-08-24T08:14:56.323Z,101808.67
2022-08-24T08:15:59.367Z,101808.70
2022-08-24T08:16:57.310Z,101809.02
2022-08-24T08:17:58.768Z,101808.86
2022-08-24T08:19:09.812Z,101809.63
2022-08-24T08:19:58.873Z,101810.19
2022-08-24T08:20:59.554Z,101810.78
2022-08-24T08:22:01.053Z,101810.78
2022-08-24T08:23:01.483Z,101811.36
2022-08-24T08:23:12.134Z,101822.74
2022-08-24T08:24:14.056Z,101825.19
2022-08-24T08:25:13.355Z,101824.75
2022-08-24T08:26:14.726Z,101824.66
2022-08-24T08:27:16.135Z,101824.02
2022-08-24T08:28:24.959Z,101823.48
2022-08-24T08:29:15.613Z,101822.91
2022-08-24T08:30:16.441Z,101822.72
2022-08-24T08:31:18.294Z,101821.55
2022-08-24T08:32:18.047Z,101821.88
2022-08-24T08:33:19.800Z,101821.46
2022-08-24T08:34:19.588Z,101820.77
2022-08-24T08:35:20.901Z,101820.06
2022-08-24T08:36:21.501Z,101820.19
2022-08-24T08:37:22.270Z,101819.83
2022-08-24T08:38:22.192Z,101819.66
2022-08-24T08:38:32.965Z,101821.76
2022-08-24T08:39:31.953Z,101820.13
2022-08-24T08:41:04.039Z,101813.88
2022-08-24T08:42:05.147Z,101808.16
2022-08-24T08:43:04.335Z,101807.91
2022-08-24T08:44:04.628Z,101808.70
2022-08-24T08:45:05.579Z,101808.29
2022-08-24T08:46:06.467Z,101809.00
2022-08-24T08:47:06.894Z,101809.55
2022-08-24T08:48:08.424Z,101809.34
2022-08-24T08:49:08.646Z,101809.95
2022-08-24T08:50:09.023Z,101810.52
2022-08-24T08:51:11.978Z,101810.30
2022-08-24T08:52:09.296Z,101809.90
2022-08-24T08:53:10.377Z,101809.53
2022-08-24T08:54:10.743Z,101809.41
2022-08-24T08:55:10.589Z,101808.83
2022-08-24T08:56:11.697Z,101808.67
2022-08-24T08:57:12.034Z,101808.17
2022-08-24T08:58:11.409Z,101807.89
2022-08-24T08:59:12.053Z,101807.81
2022-08-24T09:00:15.563Z,101808.05
2022-08-24T09:01:13.063Z,101807.63
2022-08-24T09:02:13.156Z,101807.59
2022-08-24T09:02:21.806Z,101801.62
2022-08-24T09:03:22.047Z,101801.12
2022-08-24T09:04:22.146Z,101799.91
2022-08-24T09:05:22.150Z,101799.65
2022-08-24T09:06:22.271Z,101799.20
2022-08-24T09:07:23.424Z,101798.59
2022-08-24T09:08:22.596Z,101798.39
2022-08-24T09:09:23.265Z,101797.80
2022-08-24T09:10:24.199Z,101797.64
2022-08-24T09:11:25.769Z,101797.69
2022-08-24T09:12:26.363Z,101797.11
2022-08-24T09:13:26.506Z,101797.06
2022-08-24T09:14:27.182Z,101796.52
2022-08-24T09:15:28.050Z,101796.29
2022-08-24T09:16:28.104Z,101795.75
2022-08-24T09:17:27.203Z,101794.86
2022-08-24T09:18:28.694Z,101794.11
2022-08-24T09:19:31.817Z,101793.02
2022-08-24T09:20:28.857Z,101792.74
2022-08-24T09:21:30.844Z,101792.20
2022-08-24T09:22:31.221Z,101791.72
2022-08-24T09:22:40.998Z,101789.06
2022-08-24T09:23:41.351Z,101781.06
2022-08-24T09:24:42.541Z,101780.53
2022-08-24T09:25:41.734Z,101780.64
2022-08-24T09:26:42.546Z,101780.47
2022-08-24T09:27:42.906Z,101780.30
2022-08-24T09:28:43.784Z,101779.88
2022-08-24T09:29:44.911Z,101779.59
2022-08-24T09:30:45.053Z,101779.73
2022-08-24T09:31:45.057Z,101780.03
2022-08-24T09:32:45.604Z,101779.69
2022-08-24T09:33:46.499Z,101779.77
2022-08-24T09:34:46.839Z,101779.09
2022-08-24T09:35:48.731Z,101779.48
2022-08-24T09:36:48.838Z,101778.98
2022-08-24T09:37:49.843Z,101778.83
2022-08-24T09:38:49.349Z,101778.81
2022-08-24T09:39:50.237Z,101778.51
2022-08-24T09:40:50.661Z,101778.45
2022-08-24T09:41:52.591Z,101777.98
2022-08-24T09:42:52.891Z,101778.00
2022-08-24T09:43:53.662Z,101777.37
2022-08-24T09:44:53.993Z,101777.12
2022-08-24T09:45:03.238Z,101775.73
2022-08-24T09:46:03.570Z,101774.09
2022-08-24T09:47:03.954Z,101773.64
2022-08-24T09:48:05.081Z,101772.94
2022-08-24T09:49:05.925Z,101772.99
2022-08-24T09:50:06.114Z,101773.23
2022-08-24T09:51:05.245Z,101772.75
2022-08-24T09:52:06.654Z,101772.48
2022-08-24T09:53:07.032Z,101772.13
2022-08-24T09:54:07.177Z,101771.89
2022-08-24T09:55:06.949Z,101772.11
2022-08-24T09:56:07.630Z,101771.70
2022-08-24T09:57:12.933Z,101771.38
2022-08-24T09:58:08.721Z,101771.03
2022-08-24T09:59:09.324Z,101770.55
2022-08-24T10:00:09.910Z,101770.05
2022-08-24T10:01:11.772Z,101769.53
2022-08-24T10:02:10.769Z,101769.23
2022-08-24T10:03:11.115Z,101768.48
2022-08-24T10:04:11.362Z,101767.73
2022-08-24T10:05:11.741Z,101767.50
2022-08-24T10:06:12.397Z,101766.67
2022-08-24T10:07:13.270Z,101766.16
2022-08-24T10:07:26.529Z,101760.31
2022-08-24T10:08:26.645Z,101758.68
2022-08-24T10:09:27.210Z,101758.04
2022-08-24T10:10:28.522Z,101758.09
2022-08-24T10:11:29.282Z,101757.47
2022-08-24T10:12:29.761Z,101757.17
2022-08-24T10:13:30.500Z,101756.64
2022-08-24T10:14:30.540Z,101756.17
2022-08-24T10:15:31.353Z,101755.06
2022-08-24T10:16:32.309Z,101754.34
2022-08-24T10:17:32.190Z,101753.05
2022-08-24T10:18:35.333Z,101752.36
2022-08-24T10:19:32.910Z,101750.94
2022-08-24T10:20:34.348Z,101750.00
2022-08-24T10:21:34.753Z,101748.81
2022-08-24T10:22:34.912Z,101747.59
2022-08-24T10:23:35.530Z,101746.13
2022-08-24T10:24:35.982Z,101744.88
2022-08-24T10:25:35.917Z,101744.00
2022-08-24T10:26:36.701Z,101742.81
2022-08-24T10:27:37.192Z,101741.66
2022-08-24T10:28:38.432Z,101740.71
2022-08-24T10:28:48.170Z,101722.95
2022-08-24T10:29:48.629Z,101722.15
2022-08-24T10:30:49.252Z,101722.38
2022-08-24T10:31:50.776Z,101722.22
2022-08-24T10:32:50.454Z,101722.41
2022-08-24T10:33:51.343Z,101722.16
2022-08-24T10:34:52.581Z,101721.29
2022-08-24T10:35:52.360Z,101720.41
2022-08-24T10:36:54.124Z,101719.69
2022-08-24T10:37:54.565Z,101718.66
2022-08-24T10:38:55.374Z,101718.11
2022-08-24T10:40:01.863Z,101716.86
2022-08-24T10:40:55.627Z,101716.21
2022-08-24T10:41:57.443Z,101715.23
2022-08-24T10:42:57.077Z,101714.76
2022-08-24T10:43:59.093Z,101713.81
2022-08-24T10:44:59.327Z,101713.02
2022-08-24T10:45:58.764Z,101712.50
2022-08-24T10:46:59.289Z,101711.53
2022-08-24T10:48:00.789Z,101710.66
2022-08-24T10:49:02.197Z,101710.30
2022-08-24T10:50:00.985Z,101709.05
2022-08-24T10:50:09.649Z,101705.19
2022-08-24T10:51:11.431Z,101706.73
2022-08-24T10:52:11.668Z,101706.10
2022-08-24T10:53:11.692Z,101705.92
2022-08-24T10:54:12.076Z,101705.69
2022-08-24T10:55:11.076Z,101705.41
2022-08-24T10:56:11.283Z,101704.72
2022-08-24T10:57:15.197Z,101704.06
2022-08-24T10:58:12.934Z,101703.14
2022-08-24T10:59:14.959Z,101702.25
2022-08-24T11:00:15.979Z,101701.72
2022-08-24T11:01:15.878Z,101701.29
2022-08-24T11:02:16.257Z,101700.48
2022-08-24T11:03:16.962Z,101700.19
2022-08-24T11:04:17.579Z,101700.08
2022-08-24T11:05:19.228Z,101699.72
2022-08-24T11:06:18.784Z,101699.13
2022-08-24T11:07:19.540Z,101698.95
2022-08-24T11:08:21.235Z,101698.57
2022-08-24T11:09:21.683Z,101698.41
2022-08-24T11:10:22.395Z,101697.95
2022-08-24T11:11:21.837Z,101697.67
2022-08-24T11:12:22.963Z,101697.30
2022-08-24T11:13:22.911Z,101696.81
2022-08-24T11:13:31.552Z,101687.97
2022-08-24T11:14:32.055Z,101694.76
2022-08-24T11:15:32.048Z,101694.16
2022-08-24T11:16:33.661Z,101693.53
2022-08-24T11:17:32.776Z,101693.00
2022-08-24T11:18:33.906Z,101692.66
2022-08-24T11:19:34.116Z,101692.48
2022-08-24T11:20:34.372Z,101692.03
2022-08-24T11:21:34.476Z,101691.02
2022-08-24T11:22:35.672Z,101690.08
2022-08-24T11:23:36.323Z,101689.06
2022-08-24T11:24:35.612Z,101688.19
2022-08-24T11:25:35.707Z,101686.48
2022-08-24T11:26:37.591Z,101685.28
2022-08-24T11:27:38.253Z,101684.25
2022-08-24T11:28:39.107Z,101683.93
2022-08-24T11:29:39.316Z,101683.12
2022-08-24T11:30:39.808Z,101682.88
2022-08-24T11:31:40.844Z,101682.31
2022-08-24T11:32:40.267Z,101681.78
2022-08-24T11:33:41.445Z,101681.25
2022-08-24T11:34:42.251Z,101679.96
2022-08-24T11:34:51.261Z,101667.25
2022-08-24T11:35:52.866Z,101666.07
2022-08-24T11:36:53.168Z,101666.55
2022-08-24T11:37:52.386Z,101666.05
2022-08-24T11:38:52.800Z,101666.28
2022-08-24T11:39:53.633Z,101666.27
2022-08-24T11:40:53.952Z,101666.44
2022-08-24T11:41:55.325Z,101665.94
2022-08-24T11:42:55.888Z,101666.20
2022-08-24T11:43:56.805Z,101665.78
2022-08-24T11:44:57.517Z,101665.91
2022-08-24T11:45:57.967Z,101665.66
2022-08-24T11:46:58.792Z,101665.22
2022-08-24T11:47:58.569Z,101665.25
2022-08-24T11:48:58.759Z,101664.51
2022-08-24T11:50:00.776Z,101663.63
2022-08-24T11:51:00.963Z,101663.57
2022-08-24T11:52:00.334Z,101663.47
2022-08-24T11:53:00.599Z,101662.86
2022-08-24T11:54:01.599Z,101662.17
2022-08-24T11:55:01.880Z,101661.72
2022-08-24T11:56:02.461Z,101661.30
2022-08-24T11:57:02.688Z,101661.11
2022-08-24T11:57:12.474Z,101652.07
2022-08-24T11:58:12.825Z,101662.50
2022-08-24T11:59:13.248Z,101661.34
2022-08-24T12:00:14.332Z,101660.43
2022-08-24T12:01:14.588Z,101660.28
2022-08-24T12:02:14.622Z,101659.41
2022-08-24T12:03:14.665Z,101658.92
2022-08-24T12:04:14.710Z,101658.27
2022-08-24T12:05:16.261Z,101657.86
2022-08-24T12:06:15.999Z,101657.66
2022-08-24T12:07:16.422Z,101657.37
2022-08-24T12:08:17.932Z,101657.08
2022-08-24T12:09:18.021Z,101657.09
2022-08-24T12:10:18.881Z,101656.41
2022-08-24T12:11:18.754Z,101655.89
2022-08-24T12:12:18.754Z,101655.59
2022-08-24T12:13:19.307Z,101655.06
2022-08-24T12:14:21.262Z,101654.31
2022-08-24T12:15:21.535Z,101653.89
2022-08-24T12:16:22.105Z,101653.13
2022-08-24T12:17:21.549Z,101652.14
2022-08-24T12:18:22.260Z,101651.63
2022-08-24T12:19:23.533Z,101651.49
2022-08-24T12:19:32.357Z,101644.63
2022-08-24T12:20:32.490Z,101642.99
2022-08-24T12:21:33.623Z,101642.45
2022-08-24T12:22:34.382Z,101642.66
2022-08-24T12:23:34.555Z,101642.66
2022-08-24T12:24:35.486Z,101643.08
2022-08-24T12:25:35.358Z,101642.82
2022-08-24T12:26:35.854Z,101642.41
2022-08-24T12:27:36.431Z,101641.75
2022-08-24T12:28:38.116Z,101641.48
2022-08-24T12:29:38.130Z,101641.03
2022-08-24T12:30:37.811Z,101640.67
2022-08-24T12:31:39.285Z,101640.00
2022-08-24T12:32:38.194Z,101639.98
2022-08-24T12:33:38.883Z,101639.72
2022-08-24T12:34:40.469Z,101639.75
2022-08-24T12:35:40.839Z,101639.33
2022-08-24T12:36:41.618Z,101639.72
2022-08-24T12:37:40.715Z,101639.90
2022-08-24T12:38:41.377Z,101639.79
2022-08-24T12:39:42.800Z,101639.95
2022-08-24T12:40:41.950Z,101639.95
2022-08-24T12:40:50.986Z,101644.56
2022-08-24T12:41:51.701Z,101637.26
2022-08-24T12:42:52.948Z,101637.03
2022-08-24T12:43:52.114Z,101636.34
2022-08-24T12:44:52.305Z,101636.08
2022-08-24T12:45:53.082Z,101636.22
2022-08-24T12:46:53.418Z,101636.11
2022-08-24T12:47:54.172Z,101635.95
2022-08-24T12:48:55.322Z,101636.22
2022-08-24T12:49:55.508Z,101635.66
2022-08-24T12:50:56.361Z,101635.88
2022-08-24T12:51:57.493Z,101636.60
2022-08-24T12:52:57.464Z,101637.08
2022-08-24T12:53:59.442Z,101637.34
2022-08-24T12:54:10.315Z,101646.20
2022-08-24T12:55:12.177Z,101643.41
2022-08-24T12:56:11.485Z,101642.45
2022-08-24T12:57:12.312Z,101641.75
2022-08-24T12:59:13.216Z,101640.84
2022-08-24T13:00:14.019Z,101640.20
2022-08-24T13:01:15.290Z,101639.60
2022-08-24T13:02:15.201Z,101638.72
2022-08-24T13:02:26.046Z,101626.75
2022-08-24T13:03:25.833Z,101629.55
2022-08-24T13:04:26.710Z,101628.77
2022-08-24T13:05:32.414Z,101628.59
2022-08-24T13:06:28.979Z,101628.03
2022-08-24T13:07:28.420Z,101627.21
2022-08-24T13:08:29.839Z,101626.69
2022-08-24T13:09:29.976Z,101625.60
2022-08-24T13:10:29.840Z,101625.38
2022-08-24T13:11:31.525Z,101625.14
2022-08-24T13:12:31.776Z,101624.37
2022-08-24T13:13:31.630Z,101623.79
2022-08-24T13:14:32.889Z,101624.08
2022-08-24T13:15:32.782Z,101624.05
2022-08-24T13:16:33.671Z,101623.12
2022-08-24T13:17:33.628Z,101622.70
2022-08-24T13:18:35.393Z,101622.82
2022-08-24T13:19:35.768Z,101622.23
2022-08-24T13:20:35.523Z,101621.61
2022-08-24T13:21:36.168Z,101620.43
2022-08-24T13:22:37.938Z,101620.22
2022-08-24T13:22:49.833Z,101605.55
2022-08-24T13:23:50.093Z,101607.09
2022-08-24T13:24:52.129Z,101606.69
2022-08-24T13:25:52.915Z,101606.56
2022-08-24T13:26:53.096Z,101606.80
2022-08-24T13:27:52.157Z,101606.73
2022-08-24T13:28:56.872Z,101607.27
2022-08-24T13:29:53.561Z,101607.03
2022-08-24T13:30:54.661Z,101607.05
2022-08-24T13:31:53.849Z,101606.56
2022-08-24T13:32:54.876Z,101605.84
2022-08-24T13:33:54.578Z,101604.95
2022-08-24T13:34:56.306Z,101605.25
2022-08-24T13:35:57.125Z,101604.94
2022-08-24T13:36:56.749Z,101604.97
2022-08-24T13:37:58.761Z,101604.52
2022-08-24T13:38:58.684Z,101603.91
2022-08-24T13:39:59.337Z,101603.76
2022-08-24T13:40:59.393Z,101602.95
2022-08-24T13:41:59.925Z,101602.58
2022-08-24T13:43:01.201Z,101601.66
2022-08-24T13:44:00.896Z,101601.05
2022-08-24T13:45:02.550Z,101599.81
2022-08-24T13:46:02.364Z,101599.63
2022-08-24T13:46:13.367Z,101592.05
2022-08-24T13:47:12.454Z,101586.44
2022-08-24T13:48:13.214Z,101586.20
2022-08-24T13:49:14.410Z,101586.09
2022-08-24T13:50:14.281Z,101586.13
2022-08-24T13:51:15.468Z,101586.43
2022-08-24T13:52:15.306Z,101586.02
2022-08-24T13:53:17.054Z,101585.63
2022-08-24T13:54:20.296Z,101585.52
2022-08-24T13:55:17.623Z,101585.27
2022-08-24T13:56:18.189Z,101584.87
2022-08-24T13:57:18.787Z,101584.50
2022-08-24T13:58:19.676Z,101584.34
2022-08-24T13:59:20.773Z,101584.19
2022-08-24T14:00:21.754Z,101584.09
2022-08-24T14:01:22.072Z,101584.38
2022-08-24T14:02:21.157Z,101584.36
2022-08-24T14:03:22.027Z,101584.64
2022-08-24T14:04:22.635Z,101584.93
2022-08-24T14:05:26.363Z,101585.23
2022-08-24T14:06:23.646Z,101585.09
2022-08-24T14:07:24.359Z,101584.94
2022-08-24T14:07:36.549Z,101586.11
2022-08-24T14:08:37.236Z,101580.89
2022-08-24T14:09:38.437Z,101580.80
2022-08-24T14:10:37.861Z,101580.45
2022-08-24T14:11:37.924Z,101580.63
2022-08-24T14:12:38.952Z,101580.44
2022-08-24T14:13:38.112Z,101580.20
2022-08-24T14:14:40.028Z,101580.16
2022-08-24T14:15:40.512Z,101580.51
2022-08-24T14:16:40.317Z,101580.59
2022-08-24T14:17:40.730Z,101580.21
2022-08-24T14:18:41.391Z,101580.13
2022-08-24T14:19:41.402Z,101580.07
2022-08-24T14:20:42.446Z,101579.78
2022-08-24T14:21:43.306Z,101579.56
2022-08-24T14:22:42.185Z,101578.89
2022-08-24T14:23:42.488Z,101578.38
2022-08-24T14:24:46.053Z,101577.80
2022-08-24T14:25:43.707Z,101577.25
2022-08-24T14:26:47.834Z,101577.16
2022-08-24T14:27:44.980Z,101577.19
2022-08-24T14:28:46.827Z,101577.03
2022-08-24T14:29:46.821Z,101577.04
2022-08-24T14:30:47.373Z,101577.06
2022-08-24T14:31:47.710Z,101577.41
2022-08-24T14:32:00.230Z,101582.63
2022-08-24T14:32:56.972Z,101582.98
2022-08-24T14:33:58.377Z,101582.25
2022-08-24T14:34:58.861Z,101582.08
2022-08-24T14:35:59.536Z,101581.67
2022-08-24T14:37:00.314Z,101580.77
2022-08-24T14:37:59.533Z,101580.47
2022-08-24T14:39:01.018Z,101580.17
2022-08-24T14:40:01.790Z,101579.74
2022-08-24T14:41:01.116Z,101579.41
2022-08-24T14:42:02.866Z,101578.78
2022-08-24T14:43:02.877Z,101578.27
2022-08-24T14:44:01.949Z,101578.17
2022-08-24T14:45:03.613Z,101577.96
2022-08-24T14:46:04.632Z,101576.97
2022-08-24T14:47:03.838Z,101576.38
2022-08-24T14:48:05.155Z,101576.13
2022-08-24T14:49:05.069Z,101575.78
2022-08-24T14:50:09.228Z,101575.40
2022-08-24T14:51:05.388Z,101575.12
2022-08-24T14:52:06.127Z,101574.88
2022-08-24T14:53:06.527Z,101574.75
2022-08-24T14:54:06.909Z,101574.08
2022-08-24T14:55:07.213Z,101573.40
2022-08-24T14:55:17.966Z,101566.26
2022-08-24T14:56:20.973Z,101566.26
2022-08-24T14:57:19.233Z,101565.91
2022-08-24T14:58:18.264Z,101566.44
2022-08-24T14:59:18.692Z,101566.61
2022-08-24T15:00:19.391Z,101566.59
2022-08-24T15:01:19.650Z,101566.84
2022-08-24T15:02:19.822Z,101566.55
2022-08-24T15:03:20.665Z,101566.47
2022-08-24T15:04:32.044Z,101566.34
2022-08-24T15:05:24.672Z,101566.39
2022-08-24T15:06:50.361Z,101568.47
2022-08-24T15:07:50.617Z,101565.22
2022-08-24T15:08:50.896Z,101564.73
2022-08-24T15:09:52.024Z,101564.13
2022-08-24T15:10:52.447Z,101563.23
2022-08-24T15:11:53.151Z,101562.70
2022-08-24T15:12:53.744Z,101562.31
2022-08-24T15:13:56.248Z,101561.55
2022-08-24T15:14:56.145Z,101560.91
2022-08-24T15:15:56.517Z,101560.08
2022-08-24T15:16:55.635Z,101559.45
2022-08-24T15:17:56.985Z,101558.73
2022-08-24T15:18:57.767Z,101558.33
2022-08-24T15:19:58.168Z,101557.90
2022-08-24T15:20:58.994Z,101557.62
2022-08-24T15:21:58.264Z,101557.34
2022-08-24T15:22:59.427Z,101556.91
2022-08-24T15:23:58.868Z,101556.55
2022-08-24T15:24:10.272Z,101544.69
2022-08-24T15:25:09.734Z,101542.59
2022-08-24T15:26:09.838Z,101542.66
2022-08-24T15:27:11.492Z,101542.63
2022-08-24T15:28:10.847Z,101542.92
2022-08-24T15:29:11.952Z,101542.59
2022-08-24T15:30:11.122Z,101542.80
2022-08-24T15:31:12.326Z,101542.90
2022-08-24T15:32:11.326Z,101542.64
2022-08-24T15:33:15.962Z,101542.20
2022-08-24T15:34:12.306Z,101541.66
2022-08-24T15:35:12.821Z,101540.87
2022-08-24T15:36:14.264Z,101540.75
2022-08-24T15:37:13.907Z,101540.31
2022-08-24T15:38:13.905Z,101540.14
2022-08-24T15:39:14.492Z,101539.98
2022-08-24T15:40:16.185Z,101540.02
2022-08-24T15:41:15.816Z,101539.69
2022-08-24T15:42:17.726Z,101539.20
2022-08-24T15:43:18.325Z,101538.66
2022-08-24T15:44:23.301Z,101538.33
2022-08-24T15:45:18.453Z,101538.52
2022-08-24T15:45:27.652Z,101533.67
2022-08-24T15:46:28.109Z,101541.70
2022-08-24T15:47:28.469Z,101541.18
2022-08-24T15:48:29.241Z,101540.96
2022-08-24T15:49:30.714Z,101540.65
2022-08-24T15:50:30.050Z,101540.42
2022-08-24T15:51:30.380Z,101539.64
2022-08-24T15:52:30.460Z,101539.28
2022-08-24T15:53:31.598Z,101539.41
2022-08-24T15:54:31.244Z,101538.87
2022-08-24T15:55:31.358Z,101539.25
2022-08-24T15:56:32.536Z,101539.36
2022-08-24T15:57:32.068Z,101539.45
2022-08-24T15:58:33.983Z,101539.58
2022-08-24T15:59:34.082Z,101539.52
2022-08-24T16:00:36.686Z,101539.67
2022-08-24T16:01:34.063Z,101539.70
2022-08-24T16:02:34.731Z,101539.92
2022-08-24T16:03:35.145Z,101540.05
2022-08-24T16:04:35.993Z,101540.36
2022-08-24T16:06:14.848Z,101547.56
2022-08-24T16:07:15.299Z,101545.14
2022-08-24T16:08:16.383Z,101545.25
2022-08-24T16:09:16.159Z,101544.84
2022-08-24T16:10:18.004Z,101544.63
2022-08-24T16:11:18.333Z,101544.75
2022-08-24T16:12:18.384Z,101544.31
2022-08-24T16:13:20.085Z,101544.63
2022-08-24T16:14:20.429Z,101544.39
2022-08-24T16:15:20.757Z,101545.14
2022-08-24T16:16:21.326Z,101544.95
2022-08-24T16:17:21.123Z,101544.78
2022-08-24T16:18:21.597Z,101545.11
2022-08-24T16:19:22.298Z,101545.52
2022-08-24T16:20:23.540Z,101545.77
2022-08-24T16:21:23.318Z,101545.66
2022-08-24T16:22:23.481Z,101545.59
2022-08-24T16:23:24.630Z,101545.77
2022-08-24T16:24:23.986Z,101545.69
2022-08-24T16:25:24.821Z,101545.89
2022-08-24T16:26:26.604Z,101545.76
2022-08-24T16:27:26.926Z,101545.45
2022-08-24T16:27:36.068Z,101547.88
2022-08-24T16:28:37.364Z,101550.67
2022-08-24T16:29:37.258Z,101549.83
2022-08-24T16:30:38.507Z,101549.67
2022-08-24T16:31:37.483Z,101548.85
2022-08-24T16:32:51.491Z,101547.89
2022-08-24T16:33:43.305Z,101547.47
2022-08-24T16:34:38.987Z,101546.57
2022-08-24T16:35:40.593Z,101546.15
2022-08-24T16:36:40.071Z,101545.30
2022-08-24T16:37:41.904Z,101544.63
2022-08-24T16:38:46.144Z,101543.91
2022-08-24T16:39:41.624Z,101543.25
2022-08-24T16:40:42.775Z,101542.33
2022-08-24T16:41:41.803Z,101541.95
2022-08-24T16:42:43.212Z,101541.18
2022-08-24T16:43:42.970Z,101540.97
2022-08-24T16:44:43.322Z,101540.09
2022-08-24T16:45:45.043Z,101540.55
2022-08-24T16:46:47.269Z,101540.09
2022-08-24T16:47:44.741Z,101539.65
2022-08-24T16:48:46.035Z,101539.02
2022-08-24T16:49:45.998Z,101538.53
2022-08-24T16:49:55.684Z,101535.27
2022-08-24T16:50:56.330Z,101532.81
2022-08-24T16:51:56.666Z,101532.75
2022-08-24T16:52:57.206Z,101532.47
2022-08-24T16:53:58.455Z,101532.58
2022-08-24T16:54:57.887Z,101533.18
2022-08-24T16:55:59.709Z,101533.25
2022-08-24T16:56:58.975Z,101532.81
2022-08-24T16:58:00.940Z,101532.53
2022-08-24T16:58:59.926Z,101532.81
2022-08-24T17:00:00.887Z,101532.47
2022-08-24T17:01:01.563Z,101532.11
2022-08-24T17:02:02.432Z,101532.23
2022-08-24T17:03:03.649Z,101532.40
2022-08-24T17:04:04.284Z,101532.81
2022-08-24T17:05:03.970Z,101533.05
2022-08-24T17:06:04.737Z,101533.32
2022-08-24T17:07:06.686Z,101532.66
2022-08-24T17:08:06.088Z,101532.61
2022-08-24T17:09:06.523Z,101532.50
2022-08-24T17:10:06.911Z,101532.94
2022-08-24T17:11:08.726Z,101533.36
2022-08-24T17:12:09.556Z,101533.59
2022-08-24T17:13:09.942Z,101533.96
2022-08-24T17:14:09.813Z,101534.22
2022-08-24T17:14:20.430Z,101538.78
2022-08-24T17:15:20.911Z,101538.78
2022-08-24T17:16:21.262Z,101538.61
2022-08-24T17:17:21.735Z,101538.72
2022-08-24T17:18:21.649Z,101538.69
2022-08-24T17:19:22.348Z,101538.98
2022-08-24T17:20:23.291Z,101538.47
2022-08-24T17:21:24.437Z,101538.97
2022-08-24T17:22:25.322Z,101539.13
2022-08-24T17:23:26.233Z,101539.47
2022-08-24T17:24:26.762Z,101539.75
2022-08-24T17:25:25.976Z,101539.70
2022-08-24T17:26:27.826Z,101539.94
2022-08-24T17:27:28.815Z,101540.24
2022-08-24T17:28:29.600Z,101540.84
2022-08-24T17:29:29.748Z,101540.92
2022-08-24T17:30:30.063Z,101541.21
2022-08-24T17:31:29.526Z,101541.84
2022-08-24T17:32:30.100Z,101542.10
2022-08-24T17:33:31.445Z,101541.87
2022-08-24T17:34:31.099Z,101542.09
2022-08-24T17:35:31.681Z,101542.00
2022-08-24T17:35:43.149Z,101544.81
2022-08-24T17:36:45.638Z,101543.56
2022-08-24T17:37:45.639Z,101543.08
2022-08-24T17:38:47.218Z,101543.52
2022-08-24T17:39:46.186Z,101543.88
2022-08-24T17:40:46.858Z,101544.09
2022-08-24T17:41:47.053Z,101544.64
2022-08-24T17:42:51.301Z,101544.89
2022-08-24T17:43:48.170Z,101545.58
2022-08-24T17:44:49.013Z,101546.44
2022-08-24T17:45:50.435Z,101546.78
2022-08-24T17:46:49.929Z,101547.33
2022-08-24T17:47:50.535Z,101547.59
2022-08-24T17:48:51.458Z,101548.01
2022-08-24T17:49:52.226Z,101549.30
2022-08-24T17:51:00.045Z,101549.84
2022-08-24T17:51:53.471Z,101550.92
2022-08-24T17:52:58.915Z,101551.52
2022-08-24T17:53:56.175Z,101552.25
2022-08-24T17:54:55.400Z,101553.22
2022-08-24T17:55:54.628Z,101554.20
2022-08-24T17:56:54.933Z,101554.63
2022-08-24T17:57:05.078Z,101569.11
2022-08-24T17:58:05.883Z,101568.64
2022-08-24T17:59:39.330Z,101571.94
2022-08-24T18:00:40.194Z,101573.48
2022-08-24T18:01:40.869Z,101572.97
2022-08-24T18:02:40.643Z,101573.09
2022-08-24T18:03:40.719Z,101572.70
2022-08-24T18:04:41.341Z,101572.56
2022-08-24T18:05:41.509Z,101572.98
2022-08-24T18:06:41.642Z,101573.23
2022-08-24T18:07:53.125Z,101573.27
2022-08-24T18:08:42.371Z,101573.34
2022-08-24T18:09:44.135Z,101573.84
2022-08-24T18:10:43.551Z,101574.11
2022-08-24T18:11:44.686Z,101574.41
2022-08-24T18:12:44.156Z,101574.69
2022-08-24T18:13:44.562Z,101574.88
2022-08-24T18:14:44.567Z,101574.88
2022-08-24T18:15:45.677Z,101575.64
2022-08-24T18:16:54.031Z,101576.12
2022-08-24T18:17:45.768Z,101576.17
2022-08-24T18:18:46.141Z,101576.82
2022-08-24T18:19:47.950Z,101576.98
2022-08-24T18:20:47.878Z,101577.27
2022-08-24T18:21:50.690Z,101577.28
2022-08-24T18:22:50.692Z,101577.50
2022-08-24T18:22:57.716Z,101590.02
2022-08-24T18:23:57.685Z,101588.73
2022-08-24T18:24:58.394Z,101588.42
2022-08-24T18:25:58.847Z,101588.25
2022-08-24T18:26:58.916Z,101587.91
2022-08-24T18:27:59.361Z,101587.88